Terminal Aerodrome Forecast
Issued by NWS Quad Cities IA IL

Home | Current Version | Previous Version | Graphics & Text | Print | Product List | Glossary On
Versions: 1 2 3 4 5 6 7 8 9 10 11 12 13 14 15 16 17 18 19 20 21 22 23 24 25 26 27 28 29 30 31 32 33 34 35 36
723
FTUS43 KDVN 231225 AAA
TAFMLI
TAF AMD
KMLI 231225Z 2312/2412 32015G23KT P6SM OVC013
      TEMPO 2313/2315 -SHSN
     FM231600 31014G20KT P6SM OVC018
     FM232200 30010KT P6SM OVC020=

USA.gov is the U.S. government's official web portal to all federal, state and local government web resources and services.